sensor_id;sensor_type;location;lat;lon;timestamp;temperature;humidity
1367;DHT22;16877;48.810;9.282;2023-08-20T00:01:57;33.00;58.50
1367;DHT22;16877;48.810;9.282;2023-08-20T00:04:26;33.00;58.60
1367;DHT22;16877;48.810;9.282;2023-08-20T00:06:54;33.00;58.60
1367;DHT22;16877;48.810;9.282;2023-08-20T00:09:22;33.00;58.60
1367;DHT22;16877;48.810;9.282;2023-08-20T00:11:54;32.90;58.60
1367;DHT22;16877;48.810;9.282;2023-08-20T00:14:51;32.90;58.70
1367;DHT22;16877;48.810;9.282;2023-08-20T00:17:19;32.90;58.80
1367;DHT22;16877;48.810;9.282;2023-08-20T00:19:47;32.80;58.80
1367;DHT22;16877;48.810;9.282;2023-08-20T00:22:15;32.80;58.80
1367;DHT22;16877;48.810;9.282;2023-08-20T00:24:43;32.80;58.90
1367;DHT22;16877;48.810;9.282;2023-08-20T00:27:12;32.80;59.00
1367;DHT22;16877;48.810;9.282;2023-08-20T00:29:40;32.80;58.90
1367;DHT22;16877;48.810;9.282;2023-08-20T00:32:07;32.80;59.00
1367;DHT22;16877;48.810;9.282;2023-08-20T00:34:35;32.80;59.00
1367;DHT22;16877;48.810;9.282;2023-08-20T00:37:02;32.70;59.00
1367;DHT22;16877;48.810;9.282;2023-08-20T00:39:29;32.80;59.10
1367;DHT22;16877;48.810;9.282;2023-08-20T00:41:58;32.80;59.20
1367;DHT22;16877;48.810;9.282;2023-08-20T00:44:27;32.70;59.10
1367;DHT22;16877;48.810;9.282;2023-08-20T00:46:55;32.70;59.20
1367;DHT22;16877;48.810;9.282;2023-08-20T00:49:23;32.70;59.20
1367;DHT22;16877;48.810;9.282;2023-08-20T00:51:51;32.70;59.20
1367;DHT22;16877;48.810;9.282;2023-08-20T00:54:18;32.70;59.20
1367;DHT22;16877;48.810;9.282;2023-08-20T00:56:48;32.70;59.20
1367;DHT22;16877;48.810;9.282;2023-08-20T00:59:16;32.70;59.20
1367;DHT22;16877;48.810;9.282;2023-08-20T01:01:45;32.70;59.30
1367;DHT22;16877;48.810;9.282;2023-08-20T01:04:14;32.60;59.30
1367;DHT22;16877;48.810;9.282;2023-08-20T01:06:51;32.60;59.40
1367;DHT22;16877;48.810;9.282;2023-08-20T01:09:28;32.60;59.40
1367;DHT22;16877;48.810;9.282;2023-08-20T01:12:00;32.60;60.00
1367;DHT22;16877;48.810;9.282;2023-08-20T01:14:27;32.60;59.40
1367;DHT22;16877;48.810;9.282;2023-08-20T01:16:56;32.60;59.90
1367;DHT22;16877;48.810;9.282;2023-08-20T01:19:23;32.50;59.40
1367;DHT22;16877;48.810;9.282;2023-08-20T01:22:00;32.50;59.40
1367;DHT22;16877;48.810;9.282;2023-08-20T01:24:43;32.50;59.50
1367;DHT22;16877;48.810;9.282;2023-08-20T01:27:25;32.50;59.60
1367;DHT22;16877;48.810;9.282;2023-08-20T01:29:56;32.50;59.60
1367;DHT22;16877;48.810;9.282;2023-08-20T01:32:23;32.50;60.00
1367;DHT22;16877;48.810;9.282;2023-08-20T01:34:52;32.40;59.60
1367;DHT22;16877;48.810;9.282;2023-08-20T01:37:20;32.40;59.60
1367;DHT22;16877;48.810;9.282;2023-08-20T01:39:49;32.40;59.70
1367;DHT22;16877;48.810;9.282;2023-08-20T01:42:16;32.40;59.60
1367;DHT22;16877;48.810;9.282;2023-08-20T01:44:43;32.40;59.70
1367;DHT22;16877;48.810;9.282;2023-08-20T01:47:13;32.40;59.80
1367;DHT22;16877;48.810;9.282;2023-08-20T01:49:40;32.30;59.80
1367;DHT22;16877;48.810;9.282;2023-08-20T01:52:10;32.30;59.80
1367;DHT22;16877;48.810;9.282;2023-08-20T01:54:38;32.30;59.90
1367;DHT22;16877;48.810;9.282;2023-08-20T01:57:09;32.30;59.80
1367;DHT22;16877;48.810;9.282;2023-08-20T01:59:39;32.30;59.90
1367;DHT22;16877;48.810;9.282;2023-08-20T02:02:06;32.30;60.00
1367;DHT22;16877;48.810;9.282;2023-08-20T02:04:35;32.20;60.00
1367;DHT22;16877;48.810;9.282;2023-08-20T02:07:02;32.30;60.10
1367;DHT22;16877;48.810;9.282;2023-08-20T02:09:29;32.20;60.00
1367;DHT22;16877;48.810;9.282;2023-08-20T02:11:57;32.20;60.10
1367;DHT22;16877;48.810;9.282;2023-08-20T02:14:24;32.20;60.20
1367;DHT22;16877;48.810;9.282;2023-08-20T02:16:52;32.20;60.20
1367;DHT22;16877;48.810;9.282;2023-08-20T02:19:20;32.20;60.30
1367;DHT22;16877;48.810;9.282;2023-08-20T02:21:49;32.10;60.20
1367;DHT22;16877;48.810;9.282;2023-08-20T02:24:16;32.10;60.20
1367;DHT22;16877;48.810;9.282;2023-08-20T02:26:44;32.10;60.20
1367;DHT22;16877;48.810;9.282;2023-08-20T02:29:26;32.10;60.20
1367;DHT22;16877;48.810;9.282;2023-08-20T02:31:53;32.10;60.40
1367;DHT22;16877;48.810;9.282;2023-08-20T02:34:20;32.00;60.30
1367;DHT22;16877;48.810;9.282;2023-08-20T02:36:49;32.10;60.40
1367;DHT22;16877;48.810;9.282;2023-08-20T02:39:17;32.10;60.40
1367;DHT22;16877;48.810;9.282;2023-08-20T02:41:46;32.00;60.40
1367;DHT22;16877;48.810;9.282;2023-08-20T02:44:13;32.00;60.50
1367;DHT22;16877;48.810;9.282;2023-08-20T02:46:40;32.00;60.50
1367;DHT22;16877;48.810;9.282;2023-08-20T02:49:10;32.00;60.50
1367;DHT22;16877;48.810;9.282;2023-08-20T02:51:37;32.00;61.40
1367;DHT22;16877;48.810;9.282;2023-08-20T02:54:09;32.00;60.40
1367;DHT22;16877;48.810;9.282;2023-08-20T02:56:36;31.90;60.40
1367;DHT22;16877;48.810;9.282;2023-08-20T02:59:03;31.90;60.40
1367;DHT22;16877;48.810;9.282;2023-08-20T03:01:31;31.90;60.50
1367;DHT22;16877;48.810;9.282;2023-08-20T03:03:58;31.90;60.70
1367;DHT22;16877;48.810;9.282;2023-08-20T03:06:26;31.80;60.60
1367;DHT22;16877;48.810;9.282;2023-08-20T03:08:53;31.80;60.60
1367;DHT22;16877;48.810;9.282;2023-08-20T03:11:22;31.80;60.60
1367;DHT22;16877;48.810;9.282;2023-08-20T03:13:49;31.80;60.70
1367;DHT22;16877;48.810;9.282;2023-08-20T03:16:17;31.80;60.70
1367;DHT22;16877;48.810;9.282;2023-08-20T03:18:45;31.70;60.70
1367;DHT22;16877;48.810;9.282;2023-08-20T03:21:12;31.70;60.80
1367;DHT22;16877;48.810;9.282;2023-08-20T03:23:39;31.70;60.80
1367;DHT22;16877;48.810;9.282;2023-08-20T03:26:08;31.70;60.90
1367;DHT22;16877;48.810;9.282;2023-08-20T03:28:38;31.70;60.80
1367;DHT22;16877;48.810;9.282;2023-08-20T03:31:05;31.70;60.90
1367;DHT22;16877;48.810;9.282;2023-08-20T03:33:32;31.70;61.00
1367;DHT22;16877;48.810;9.282;2023-08-20T03:35:59;31.60;60.90
1367;DHT22;16877;48.810;9.282;2023-08-20T03:38:27;31.60;60.90
1367;DHT22;16877;48.810;9.282;2023-08-20T03:40:55;31.60;60.90
1367;DHT22;16877;48.810;9.282;2023-08-20T03:43:22;31.60;60.80
1367;DHT22;16877;48.810;9.282;2023-08-20T03:45:51;31.60;60.90
1367;DHT22;16877;48.810;9.282;2023-08-20T03:48:19;31.60;61.10
1367;DHT22;16877;48.810;9.282;2023-08-20T03:50:46;31.60;61.20
1367;DHT22;16877;48.810;9.282;2023-08-20T03:53:14;31.50;61.20
1367;DHT22;16877;48.810;9.282;2023-08-20T03:55:42;31.50;61.30
1367;DHT22;16877;48.810;9.282;2023-08-20T03:58:14;31.50;61.30
1367;DHT22;16877;48.810;9.282;2023-08-20T04:00:41;31.50;61.40
1367;DHT22;16877;48.810;9.282;2023-08-20T04:03:10;31.50;61.40
1367;DHT22;16877;48.810;9.282;2023-08-20T04:05:38;31.50;61.40
1367;DHT22;16877;48.810;9.282;2023-08-20T04:08:05;31.50;61.40
1367;DHT22;16877;48.810;9.282;2023-08-20T04:10:33;31.50;61.40
1367;DHT22;16877;48.810;9.282;2023-08-20T04:13:00;31.50;61.40
1367;DHT22;16877;48.810;9.282;2023-08-20T04:15:28;31.50;61.40
1367;DHT22;16877;48.810;9.282;2023-08-20T04:17:55;31.50;61.30
1367;DHT22;16877;48.810;9.282;2023-08-20T04:20:24;31.40;61.30
1367;DHT22;16877;48.810;9.282;2023-08-20T04:22:52;31.40;61.20
1367;DHT22;16877;48.810;9.282;2023-08-20T04:25:19;31.40;61.30
1367;DHT22;16877;48.810;9.282;2023-08-20T04:27:47;31.40;61.40
1367;DHT22;16877;48.810;9.282;2023-08-20T04:30:15;31.40;61.30
1367;DHT22;16877;48.810;9.282;2023-08-20T04:32:42;31.30;61.20
1367;DHT22;16877;48.810;9.282;2023-08-20T04:35:09;31.30;61.20
1367;DHT22;16877;48.810;9.282;2023-08-20T04:37:38;31.30;61.20
1367;DHT22;16877;48.810;9.282;2023-08-20T04:40:07;31.30;61.40
1367;DHT22;16877;48.810;9.282;2023-08-20T04:42:35;31.20;61.30
1367;DHT22;16877;48.810;9.282;2023-08-20T04:45:02;31.20;61.30
1367;DHT22;16877;48.810;9.282;2023-08-20T04:47:30;31.20;61.50
1367;DHT22;16877;48.810;9.282;2023-08-20T04:49:57;31.20;61.60
1367;DHT22;16877;48.810;9.282;2023-08-20T04:52:25;31.20;61.60
1367;DHT22;16877;48.810;9.282;2023-08-20T04:54:54;31.20;61.60
1367;DHT22;16877;48.810;9.282;2023-08-20T04:57:21;31.20;61.50
1367;DHT22;16877;48.810;9.282;2023-08-20T04:59:51;31.20;61.50
1367;DHT22;16877;48.810;9.282;2023-08-20T05:02:19;31.30;61.50
1367;DHT22;16877;48.810;9.282;2023-08-20T05:04:47;31.30;61.40
1367;DHT22;16877;48.810;9.282;2023-08-20T05:07:14;31.30;61.50
1367;DHT22;16877;48.810;9.282;2023-08-20T05:09:42;31.30;61.40
1367;DHT22;16877;48.810;9.282;2023-08-20T05:12:10;31.30;61.40
1367;DHT22;16877;48.810;9.282;2023-08-20T05:14:42;31.40;61.50
1367;DHT22;16877;48.810;9.282;2023-08-20T05:17:10;31.40;61.50
1367;DHT22;16877;48.810;9.282;2023-08-20T05:19:37;31.40;61.50
1367;DHT22;16877;48.810;9.282;2023-08-20T05:22:11;31.40;61.50
1367;DHT22;16877;48.810;9.282;2023-08-20T05:24:43;31.40;61.50
1367;DHT22;16877;48.810;9.282;2023-08-20T05:27:14;31.40;61.40
1367;DHT22;16877;48.810;9.282;2023-08-20T05:29:43;31.40;61.30
1367;DHT22;16877;48.810;9.282;2023-08-20T05:32:11;31.40;61.20
1367;DHT22;16877;48.810;9.282;2023-08-20T05:34:39;31.50;61.20
1367;DHT22;16877;48.810;9.282;2023-08-20T05:37:06;31.50;61.10
1367;DHT22;16877;48.810;9.282;2023-08-20T05:39:37;31.50;61.10
1367;DHT22;16877;48.810;9.282;2023-08-20T05:42:05;31.60;61.20
1367;DHT22;16877;48.810;9.282;2023-08-20T05:44:34;31.50;61.20
1367;DHT22;16877;48.810;9.282;2023-08-20T05:47:02;31.50;61.20
1367;DHT22;16877;48.810;9.282;2023-08-20T05:49:31;31.60;61.30
1367;DHT22;16877;48.810;9.282;2023-08-20T05:51:58;31.60;61.20
1367;DHT22;16877;48.810;9.282;2023-08-20T05:54:41;31.60;61.20
1367;DHT22;16877;48.810;9.282;2023-08-20T05:57:09;31.60;61.20
1367;DHT22;16877;48.810;9.282;2023-08-20T05:59:54;31.70;61.20
1367;DHT22;16877;48.810;9.282;2023-08-20T06:02:22;31.70;61.20
1367;DHT22;16877;48.810;9.282;2023-08-20T06:04:50;31.70;61.10
1367;DHT22;16877;48.810;9.282;2023-08-20T06:07:18;31.80;61.10
1367;DHT22;16877;48.810;9.282;2023-08-20T06:09:52;31.80;61.10
1367;DHT22;16877;48.810;9.282;2023-08-20T06:12:23;31.80;61.10
1367;DHT22;16877;48.810;9.282;2023-08-20T06:14:56;31.90;61.00
1367;DHT22;16877;48.810;9.282;2023-08-20T06:17:24;31.90;60.90
1367;DHT22;16877;48.810;9.282;2023-08-20T06:19:57;32.00;60.90
1367;DHT22;16877;48.810;9.282;2023-08-20T06:22:25;32.00;60.90
1367;DHT22;16877;48.810;9.282;2023-08-20T06:24:53;32.10;60.90
1367;DHT22;16877;48.810;9.282;2023-08-20T06:27:20;32.20;60.80
1367;DHT22;16877;48.810;9.282;2023-08-20T06:29:47;32.10;60.90
1367;DHT22;16877;48.810;9.282;2023-08-20T06:32:17;32.20;60.90
1367;DHT22;16877;48.810;9.282;2023-08-20T06:34:45;32.30;60.70
1367;DHT22;16877;48.810;9.282;2023-08-20T06:37:21;32.30;60.70
1367;DHT22;16877;48.810;9.282;2023-08-20T06:39:49;32.30;60.50
1367;DHT22;16877;48.810;9.282;2023-08-20T06:42:16;32.40;60.60
1367;DHT22;16877;48.810;9.282;2023-08-20T06:44:44;32.30;60.80
1367;DHT22;16877;48.810;9.282;2023-08-20T06:47:12;32.30;61.20
1367;DHT22;16877;48.810;9.282;2023-08-20T06:49:44;32.10;61.70
1367;DHT22;16877;48.810;9.282;2023-08-20T06:52:11;32.10;62.90
1367;DHT22;16877;48.810;9.282;2023-08-20T06:54:39;32.10;61.90
1367;DHT22;16877;48.810;9.282;2023-08-20T06:57:07;32.30;61.70
1367;DHT22;16877;48.810;9.282;2023-08-20T06:59:34;32.40;61.40
1367;DHT22;16877;48.810;9.282;2023-08-20T07:02:02;32.50;61.20
1367;DHT22;16877;48.810;9.282;2023-08-20T07:04:29;32.70;60.80
1367;DHT22;16877;48.810;9.282;2023-08-20T07:06:58;32.90;60.70
1367;DHT22;16877;48.810;9.282;2023-08-20T07:09:25;32.90;60.60
1367;DHT22;16877;48.810;9.282;2023-08-20T07:11:52;32.90;60.20
1367;DHT22;16877;48.810;9.282;2023-08-20T07:14:23;33.00;60.40
1367;DHT22;16877;48.810;9.282;2023-08-20T07:16:50;33.10;60.40
1367;DHT22;16877;48.810;9.282;2023-08-20T07:19:18;33.30;60.20
1367;DHT22;16877;48.810;9.282;2023-08-20T07:21:46;33.30;59.60
1367;DHT22;16877;48.810;9.282;2023-08-20T07:24:15;33.30;59.60
1367;DHT22;16877;48.810;9.282;2023-08-20T07:26:43;33.50;59.80
1367;DHT22;16877;48.810;9.282;2023-08-20T07:29:10;33.60;59.60
1367;DHT22;16877;48.810;9.282;2023-08-20T07:31:37;33.70;59.60
1367;DHT22;16877;48.810;9.282;2023-08-20T07:34:05;33.80;59.40
1367;DHT22;16877;48.810;9.282;2023-08-20T07:36:33;33.70;59.50
1367;DHT22;16877;48.810;9.282;2023-08-20T07:39:00;33.80;59.50
1367;DHT22;16877;48.810;9.282;2023-08-20T07:41:32;33.70;59.30
1367;DHT22;16877;48.810;9.282;2023-08-20T07:44:00;33.70;59.50
1367;DHT22;16877;48.810;9.282;2023-08-20T07:46:34;34.00;59.60
1367;DHT22;16877;48.810;9.282;2023-08-20T07:49:08;34.10;59.20
1367;DHT22;16877;48.810;9.282;2023-08-20T07:51:36;34.20;58.90
1367;DHT22;16877;48.810;9.282;2023-08-20T07:54:03;34.40;58.90
1367;DHT22;16877;48.810;9.282;2023-08-20T07:56:33;34.40;58.50
1367;DHT22;16877;48.810;9.282;2023-08-20T07:59:00;34.30;58.60
1367;DHT22;16877;48.810;9.282;2023-08-20T08:01:27;34.40;58.60
1367;DHT22;16877;48.810;9.282;2023-08-20T08:03:54;34.40;58.60
1367;DHT22;16877;48.810;9.282;2023-08-20T08:06:22;34.50;58.50
1367;DHT22;16877;48.810;9.282;2023-08-20T08:08:49;34.50;58.30
1367;DHT22;16877;48.810;9.282;2023-08-20T08:11:16;34.70;58.20
1367;DHT22;16877;48.810;9.282;2023-08-20T08:13:46;34.80;58.10
1367;DHT22;16877;48.810;9.282;2023-08-20T08:16:16;35.00;58.10
1367;DHT22;16877;48.810;9.282;2023-08-20T08:18:46;35.20;57.80
1367;DHT22;16877;48.810;9.282;2023-08-20T08:21:13;35.30;57.50
1367;DHT22;16877;48.810;9.282;2023-08-20T08:23:41;35.40;57.50
1367;DHT22;16877;48.810;9.282;2023-08-20T08:26:07;35.40;57.00
1367;DHT22;16877;48.810;9.282;2023-08-20T08:28:35;35.50;57.10
1367;DHT22;16877;48.810;9.282;2023-08-20T08:31:04;35.60;57.00
1367;DHT22;16877;48.810;9.282;2023-08-20T08:33:34;35.60;56.50
1367;DHT22;16877;48.810;9.282;2023-08-20T08:36:01;35.50;56.60
1367;DHT22;16877;48.810;9.282;2023-08-20T08:38:29;35.40;56.80
1367;DHT22;16877;48.810;9.282;2023-08-20T08:40:57;35.50;57.00
1367;DHT22;16877;48.810;9.282;2023-08-20T08:43:26;35.70;56.70
1367;DHT22;16877;48.810;9.282;2023-08-20T08:45:55;35.70;56.50
1367;DHT22;16877;48.810;9.282;2023-08-20T08:48:25;35.70;56.50
1367;DHT22;16877;48.810;9.282;2023-08-20T08:50:52;35.60;56.50
1367;DHT22;16877;48.810;9.282;2023-08-20T08:53:23;35.80;56.50
1367;DHT22;16877;48.810;9.282;2023-08-20T08:55:51;36.00;56.30
1367;DHT22;16877;48.810;9.282;2023-08-20T08:58:21;36.10;55.90
1367;DHT22;16877;48.810;9.282;2023-08-20T09:00:48;36.30;55.90
1367;DHT22;16877;48.810;9.282;2023-08-20T09:03:16;36.40;55.60
1367;DHT22;16877;48.810;9.282;2023-08-20T09:05:50;36.60;55.70
1367;DHT22;16877;48.810;9.282;2023-08-20T09:08:20;36.80;55.50
1367;DHT22;16877;48.810;9.282;2023-08-20T09:10:50;37.00;55.10
1367;DHT22;16877;48.810;9.282;2023-08-20T09:13:18;37.10;54.60
1367;DHT22;16877;48.810;9.282;2023-08-20T09:15:51;37.00;54.50
1367;DHT22;16877;48.810;9.282;2023-08-20T09:18:18;37.00;54.20
1367;DHT22;16877;48.810;9.282;2023-08-20T09:20:49;37.20;54.20
1367;DHT22;16877;48.810;9.282;2023-08-20T09:23:17;37.40;54.00
1367;DHT22;16877;48.810;9.282;2023-08-20T09:25:44;37.60;53.70
1367;DHT22;16877;48.810;9.282;2023-08-20T09:28:12;37.80;53.50
1367;DHT22;16877;48.810;9.282;2023-08-20T09:30:54;38.00;53.10
1367;DHT22;16877;48.810;9.282;2023-08-20T09:33:22;38.20;53.00
1367;DHT22;16877;48.810;9.282;2023-08-20T09:35:51;38.30;52.40
1367;DHT22;16877;48.810;9.282;2023-08-20T09:38:20;38.40;52.20
1367;DHT22;16877;48.810;9.282;2023-08-20T09:40:49;38.50;52.00
1367;DHT22;16877;48.810;9.282;2023-08-20T09:43:16;38.70;51.60
1367;DHT22;16877;48.810;9.282;2023-08-20T09:45:43;38.90;51.50
1367;DHT22;16877;48.810;9.282;2023-08-20T09:48:14;39.00;51.30
1367;DHT22;16877;48.810;9.282;2023-08-20T09:50:46;39.20;51.20
1367;DHT22;16877;48.810;9.282;2023-08-20T09:53:24;39.20;50.90
1367;DHT22;16877;48.810;9.282;2023-08-20T09:55:54;39.20;50.90
1367;DHT22;16877;48.810;9.282;2023-08-20T09:58:26;39.40;51.00
1367;DHT22;16877;48.810;9.282;2023-08-20T10:00:56;39.60;50.80
1367;DHT22;16877;48.810;9.282;2023-08-20T10:03:23;39.80;50.40
1367;DHT22;16877;48.810;9.282;2023-08-20T10:05:52;39.90;50.20
1367;DHT22;16877;48.810;9.282;2023-08-20T10:08:21;40.10;50.20
1367;DHT22;16877;48.810;9.282;2023-08-20T10:10:48;40.20;50.70
1367;DHT22;16877;48.810;9.282;2023-08-20T10:13:16;40.40;49.90
1367;DHT22;16877;48.810;9.282;2023-08-20T10:15:49;40.50;49.20
1367;DHT22;16877;48.810;9.282;2023-08-20T10:18:19;40.70;49.00
1367;DHT22;16877;48.810;9.282;2023-08-20T10:20:49;40.80;48.40
1367;DHT22;16877;48.810;9.282;2023-08-20T10:23:22;40.90;48.50
1367;DHT22;16877;48.810;9.282;2023-08-20T10:25:52;40.90;48.20
1367;DHT22;16877;48.810;9.282;2023-08-20T10:28:21;40.80;49.00
1367;DHT22;16877;48.810;9.282;2023-08-20T10:31:05;41.00;48.20
1367;DHT22;16877;48.810;9.282;2023-08-20T10:33:34;41.20;48.00
1367;DHT22;16877;48.810;9.282;2023-08-20T10:36:07;41.40;47.80
1367;DHT22;16877;48.810;9.282;2023-08-20T10:38:38;41.60;47.30
1367;DHT22;16877;48.810;9.282;2023-08-20T10:41:08;41.70;47.10
1367;DHT22;16877;48.810;9.282;2023-08-20T10:43:37;41.90;47.20
1367;DHT22;16877;48.810;9.282;2023-08-20T10:46:15;42.00;47.00
1367;DHT22;16877;48.810;9.282;2023-08-20T10:48:46;42.00;46.20
1367;DHT22;16877;48.810;9.282;2023-08-20T10:51:16;42.10;46.10
1367;DHT22;16877;48.810;9.282;2023-08-20T10:54:04;42.20;45.90
1367;DHT22;16877;48.810;9.282;2023-08-20T10:56:39;42.50;45.80
1367;DHT22;16877;48.810;9.282;2023-08-20T10:59:07;43.00;45.70
1367;DHT22;16877;48.810;9.282;2023-08-20T11:01:35;43.10;45.10
1367;DHT22;16877;48.810;9.282;2023-08-20T11:04:04;43.30;45.00
1367;DHT22;16877;48.810;9.282;2023-08-20T11:06:33;43.60;44.60
1367;DHT22;16877;48.810;9.282;2023-08-20T11:09:03;43.50;43.60
1367;DHT22;16877;48.810;9.282;2023-08-20T11:11:31;43.50;43.90
1367;DHT22;16877;48.810;9.282;2023-08-20T11:14:04;43.50;43.20
1367;DHT22;16877;48.810;9.282;2023-08-20T11:16:34;43.80;43.20
1367;DHT22;16877;48.810;9.282;2023-08-20T11:19:02;43.90;42.70
1367;DHT22;16877;48.810;9.282;2023-08-20T11:24:41;44.20;42.10
1367;DHT22;16877;48.810;9.282;2023-08-20T11:27:09;44.40;42.50
1367;DHT22;16877;48.810;9.282;2023-08-20T11:29:41;44.40;41.80
1367;DHT22;16877;48.810;9.282;2023-08-20T11:32:09;44.50;40.90
1367;DHT22;16877;48.810;9.282;2023-08-20T11:34:48;44.70;41.80
1367;DHT22;16877;48.810;9.282;2023-08-20T11:37:18;45.00;41.30
1367;DHT22;16877;48.810;9.282;2023-08-20T11:40:09;45.30;41.30
1367;DHT22;16877;48.810;9.282;2023-08-20T11:42:39;45.40;40.90
1367;DHT22;16877;48.810;9.282;2023-08-20T11:45:10;45.50;40.40
1367;DHT22;16877;48.810;9.282;2023-08-20T11:47:41;45.50;40.40
1367;DHT22;16877;48.810;9.282;2023-08-20T11:50:10;45.60;40.30
1367;DHT22;16877;48.810;9.282;2023-08-20T11:52:39;45.80;40.60
1367;DHT22;16877;48.810;9.282;2023-08-20T11:55:08;46.00;40.20
1367;DHT22;16877;48.810;9.282;2023-08-20T11:57:36;46.20;39.90
1367;DHT22;16877;48.810;9.282;2023-08-20T12:00:05;46.40;40.00
1367;DHT22;16877;48.810;9.282;2023-08-20T12:02:34;46.50;39.70
1367;DHT22;16877;48.810;9.282;2023-08-20T12:05:02;46.50;39.50
1367;DHT22;16877;48.810;9.282;2023-08-20T12:07:29;46.40;39.50
1367;DHT22;16877;48.810;9.282;2023-08-20T12:09:57;46.60;39.30
1367;DHT22;16877;48.810;9.282;2023-08-20T12:12:27;46.70;39.10
1367;DHT22;16877;48.810;9.282;2023-08-20T12:14:57;46.70;38.60
1367;DHT22;16877;48.810;9.282;2023-08-20T12:17:24;46.90;38.50
1367;DHT22;16877;48.810;9.282;2023-08-20T12:19:52;47.10;38.30
1367;DHT22;16877;48.810;9.282;2023-08-20T12:22:26;47.20;38.10
1367;DHT22;16877;48.810;9.282;2023-08-20T12:24:53;47.40;38.00
1367;DHT22;16877;48.810;9.282;2023-08-20T12:27:21;47.40;37.50
1367;DHT22;16877;48.810;9.282;2023-08-20T12:29:51;47.50;37.70
1367;DHT22;16877;48.810;9.282;2023-08-20T12:32:19;47.70;37.50
1367;DHT22;16877;48.810;9.282;2023-08-20T12:34:46;47.90;37.80
1367;DHT22;16877;48.810;9.282;2023-08-20T12:37:13;48.10;38.70
1367;DHT22;16877;48.810;9.282;2023-08-20T12:39:41;48.30;38.30
1367;DHT22;16877;48.810;9.282;2023-08-20T12:42:08;48.60;38.50
1367;DHT22;16877;48.810;9.282;2023-08-20T12:44:35;48.80;38.60
1367;DHT22;16877;48.810;9.282;2023-08-20T12:47:04;49.00;38.40
1367;DHT22;16877;48.810;9.282;2023-08-20T12:49:32;48.90;38.20
1367;DHT22;16877;48.810;9.282;2023-08-20T12:51:59;49.20;38.40
1367;DHT22;16877;48.810;9.282;2023-08-20T12:54:27;49.30;38.40
1367;DHT22;16877;48.810;9.282;2023-08-20T12:56:55;49.60;38.50
1367;DHT22;16877;48.810;9.282;2023-08-20T12:59:23;49.70;38.70
1367;DHT22;16877;48.810;9.282;2023-08-20T13:01:50;49.80;38.70
1367;DHT22;16877;48.810;9.282;2023-08-20T13:04:21;49.90;38.70
1367;DHT22;16877;48.810;9.282;2023-08-20T13:06:48;50.00;38.80
1367;DHT22;16877;48.810;9.282;2023-08-20T13:09:16;49.90;38.40
1367;DHT22;16877;48.810;9.282;2023-08-20T13:11:45;49.90;37.50
1367;DHT22;16877;48.810;9.282;2023-08-20T13:14:15;49.80;36.70
1367;DHT22;16877;48.810;9.282;2023-08-20T13:16:43;49.70;36.20
1367;DHT22;16877;48.810;9.282;2023-08-20T13:19:11;49.90;36.70
1367;DHT22;16877;48.810;9.282;2023-08-20T13:21:41;49.90;37.10
1367;DHT22;16877;48.810;9.282;2023-08-20T13:24:08;50.10;37.50
1367;DHT22;16877;48.810;9.282;2023-08-20T13:26:35;50.40;38.20
1367;DHT22;16877;48.810;9.282;2023-08-20T13:29:03;50.40;37.70
1367;DHT22;16877;48.810;9.282;2023-08-20T13:31:30;50.60;38.10
1367;DHT22;16877;48.810;9.282;2023-08-20T13:33:58;50.90;38.30
1367;DHT22;16877;48.810;9.282;2023-08-20T13:36:25;51.00;38.10
1367;DHT22;16877;48.810;9.282;2023-08-20T13:38:55;51.10;37.80
1367;DHT22;16877;48.810;9.282;2023-08-20T13:41:24;51.20;37.60
1367;DHT22;16877;48.810;9.282;2023-08-20T13:43:52;51.40;37.60
1367;DHT22;16877;48.810;9.282;2023-08-20T13:46:20;51.50;37.30
1367;DHT22;16877;48.810;9.282;2023-08-20T13:48:47;51.70;37.10
1367;DHT22;16877;48.810;9.282;2023-08-20T13:51:15;51.80;37.20
1367;DHT22;16877;48.810;9.282;2023-08-20T13:53:43;51.90;37.20
1367;DHT22;16877;48.810;9.282;2023-08-20T13:56:12;52.00;36.90
1367;DHT22;16877;48.810;9.282;2023-08-20T13:58:40;52.10;36.50
1367;DHT22;16877;48.810;9.282;2023-08-20T14:01:07;52.20;36.40
1367;DHT22;16877;48.810;9.282;2023-08-20T14:03:39;52.40;36.60
1367;DHT22;16877;48.810;9.282;2023-08-20T14:06:06;52.40;36.60
1367;DHT22;16877;48.810;9.282;2023-08-20T14:08:34;52.40;36.60
1367;DHT22;16877;48.810;9.282;2023-08-20T14:11:05;52.50;36.60
1367;DHT22;16877;48.810;9.282;2023-08-20T14:13:34;52.50;36.60
1367;DHT22;16877;48.810;9.282;2023-08-20T14:16:02;52.70;36.50
1367;DHT22;16877;48.810;9.282;2023-08-20T14:18:30;52.70;36.00
1367;DHT22;16877;48.810;9.282;2023-08-20T14:20:58;52.80;36.10
1367;DHT22;16877;48.810;9.282;2023-08-20T14:23:29;52.90;36.00
1367;DHT22;16877;48.810;9.282;2023-08-20T14:25:58;53.00;35.50
1367;DHT22;16877;48.810;9.282;2023-08-20T14:28:41;53.00;35.50
1367;DHT22;16877;48.810;9.282;2023-08-20T14:31:09;53.10;35.70
1367;DHT22;16877;48.810;9.282;2023-08-20T14:33:36;53.10;35.70
1367;DHT22;16877;48.810;9.282;2023-08-20T14:36:04;53.20;35.70
1367;DHT22;16877;48.810;9.282;2023-08-20T14:38:34;53.20;35.80
1367;DHT22;16877;48.810;9.282;2023-08-20T14:41:02;53.20;35.70
1367;DHT22;16877;48.810;9.282;2023-08-20T14:43:48;53.20;35.70
1367;DHT22;16877;48.810;9.282;2023-08-20T14:46:16;53.30;35.50
1367;DHT22;16877;48.810;9.282;2023-08-20T14:48:43;53.30;35.50
1367;DHT22;16877;48.810;9.282;2023-08-20T14:51:10;53.30;35.50
1367;DHT22;16877;48.810;9.282;2023-08-20T14:53:38;53.30;35.60
1367;DHT22;16877;48.810;9.282;2023-08-20T14:56:05;53.20;35.40
1367;DHT22;16877;48.810;9.282;2023-08-20T14:58:33;53.20;35.40
1367;DHT22;16877;48.810;9.282;2023-08-20T15:01:06;53.30;35.20
1367;DHT22;16877;48.810;9.282;2023-08-20T15:03:33;53.20;34.90
1367;DHT22;16877;48.810;9.282;2023-08-20T15:06:00;53.10;34.90
1367;DHT22;16877;48.810;9.282;2023-08-20T15:08:29;53.10;35.10
1367;DHT22;16877;48.810;9.282;2023-08-20T15:10:58;52.90;35.00
1367;DHT22;16877;48.810;9.282;2023-08-20T15:13:26;52.70;35.00
1367;DHT22;16877;48.810;9.282;2023-08-20T15:15:53;52.40;35.20
1367;DHT22;16877;48.810;9.282;2023-08-20T15:18:23;52.10;35.30
1367;DHT22;16877;48.810;9.282;2023-08-20T15:20:54;51.70;35.40
1367;DHT22;16877;48.810;9.282;2023-08-20T15:23:22;51.40;35.50
1367;DHT22;16877;48.810;9.282;2023-08-20T15:25:50;51.10;35.70
1367;DHT22;16877;48.810;9.282;2023-08-20T15:28:18;51.10;35.90
1367;DHT22;16877;48.810;9.282;2023-08-20T15:30:48;51.10;36.10
1367;DHT22;16877;48.810;9.282;2023-08-20T15:33:16;51.10;36.10
1367;DHT22;16877;48.810;9.282;2023-08-20T15:36:02;51.10;36.10
1367;DHT22;16877;48.810;9.282;2023-08-20T15:38:30;51.10;36.20
1367;DHT22;16877;48.810;9.282;2023-08-20T15:40:58;50.80;36.10
1367;DHT22;16877;48.810;9.282;2023-08-20T15:43:25;50.60;36.10
1367;DHT22;16877;48.810;9.282;2023-08-20T15:45:52;50.30;36.10
1367;DHT22;16877;48.810;9.282;2023-08-20T15:48:19;50.20;36.10
1367;DHT22;16877;48.810;9.282;2023-08-20T15:50:47;50.20;36.10
1367;DHT22;16877;48.810;9.282;2023-08-20T15:53:15;50.20;36.00
1367;DHT22;16877;48.810;9.282;2023-08-20T15:55:43;50.30;35.80
1367;DHT22;16877;48.810;9.282;2023-08-20T15:58:11;50.30;35.50
1367;DHT22;16877;48.810;9.282;2023-08-20T16:00:38;50.20;35.70